Time;durP1;ratioP1;P1;durP2;ratioP2;P2;SDS_P1;SDS_P2;PMS_P1;PMS_P2;Temp;Humidity;BMP_temperature;BMP_pressure;BME280_temperature;BME280_humidity;BME280_pressure;Samples;Min_cycle;Max_cycle;Signal;HPM_P1;HPM_P2
2021/12/31 00:00:01;;;;;;;;;;;12.50;99.90;;;;;;5014304;28;19969;-47
2021/12/31 00:02:28;;;;;;;;;;;12.50;99.90;;;;;;5014195;28;19979;-45
2021/12/31 00:04:56;;;;;;;;;;;12.50;99.90;;;;;;5012445;28;19976;-45
2021/12/31 00:07:25;;;;;;;;;;;12.50;99.90;;;;;;5045977;28;20008;-48
2021/12/31 00:09:58;;;;;;;;;;;12.50;99.90;;;;;;5014728;28;20278;-45
2021/12/31 00:12:25;;;;;;;;;;;12.50;99.90;;;;;;5011634;28;19938;-45
2021/12/31 00:14:52;;;;;;;;;;;12.50;99.90;;;;;;5045033;28;19926;-45
2021/12/31 00:17:19;;;;;;;;;;;12.50;99.90;;;;;;5012812;28;19925;-46
2021/12/31 00:19:47;;;;;;;;;;;12.50;99.90;;;;;;5019115;28;19926;-45
2021/12/31 00:22:39;;;;;;;;;;;12.50;99.90;;;;;;5013834;28;19984;-47
2021/12/31 00:25:08;;;;;;;;;;;12.50;99.90;;;;;;5013774;28;20389;-45
2021/12/31 00:27:34;;;;;;;;;;;12.50;99.90;;;;;;5013054;28;19979;-44
2021/12/31 00:30:01;;;;;;;;;;;12.50;99.90;;;;;;5012854;28;20012;-46
2021/12/31 00:32:28;;;;;;;;;;;12.50;99.90;;;;;;5012217;28;19949;-46
2021/12/31 00:34:55;;;;;;;;;;;12.50;99.90;;;;;;5013897;28;20287;-45
2021/12/31 00:37:28;;;;;;;;;;;12.50;99.90;;;;;;5013197;28;19929;-46
2021/12/31 00:39:54;;;;;;;;;;;12.50;99.90;;;;;;5015995;28;19947;-44
2021/12/31 00:42:22;;;;;;;;;;;12.50;99.90;;;;;;5013558;28;19930;-47
2021/12/31 00:44:49;;;;;;;;;;;12.50;99.90;;;;;;5013294;28;19969;-45
2021/12/31 00:47:16;;;;;;;;;;;12.50;99.90;;;;;;5011894;28;19948;-47
2021/12/31 00:49:43;;;;;;;;;;;12.50;99.90;;;;;;5045554;28;20008;-45
2021/12/31 00:52:10;;;;;;;;;;;12.50;99.90;;;;;;5012693;28;19935;-45
2021/12/31 00:54:36;;;;;;;;;;;12.60;99.90;;;;;;5026601;28;19976;-46
2021/12/31 00:57:04;;;;;;;;;;;12.60;99.90;;;;;;5015462;28;19925;-45
2021/12/31 00:59:32;;;;;;;;;;;12.60;99.90;;;;;;5048612;28;19971;-44
2021/12/31 01:01:59;;;;;;;;;;;12.60;99.90;;;;;;5015648;28;20404;-45
2021/12/31 01:04:25;;;;;;;;;;;12.60;99.90;;;;;;5030987;28;19964;-48
2021/12/31 01:06:53;;;;;;;;;;;12.60;99.90;;;;;;5039935;28;19976;-45
2021/12/31 01:09:20;;;;;;;;;;;12.60;99.90;;;;;;5013745;28;19925;-45
2021/12/31 01:11:48;;;;;;;;;;;12.60;99.90;;;;;;5032790;28;19976;-46
2021/12/31 01:14:25;;;;;;;;;;;12.60;99.90;;;;;;5015392;28;19925;-45
2021/12/31 01:16:58;;;;;;;;;;;12.60;99.90;;;;;;5010437;28;19979;-44
2021/12/31 01:22:09;;;;;;;;;;;12.60;99.90;;;;;;5032914;28;19972;-46
2021/12/31 01:24:36;;;;;;;;;;;12.70;99.90;;;;;;5014983;28;20011;-45
2021/12/31 01:27:02;;;;;;;;;;;12.70;99.90;;;;;;5032479;28;19925;-44
2021/12/31 01:29:29;;;;;;;;;;;12.70;99.90;;;;;;5031663;28;19925;-44
2021/12/31 01:31:57;;;;;;;;;;;12.70;99.90;;;;;;5014561;28;20004;-43
2021/12/31 01:34:24;;;;;;;;;;;12.70;99.90;;;;;;5047705;28;20389;-44
2021/12/31 01:36:51;;;;;;;;;;;12.60;99.90;;;;;;5029690;28;20374;-44
2021/12/31 01:39:18;;;;;;;;;;;12.60;99.90;;;;;;5015257;28;19971;-46
2021/12/31 01:41:44;;;;;;;;;;;12.60;99.90;;;;;;5032719;28;19931;-44
2021/12/31 01:44:11;;;;;;;;;;;12.60;99.90;;;;;;5016815;28;19967;-44
2021/12/31 01:46:40;;;;;;;;;;;12.60;99.90;;;;;;5014102;28;20525;-44
2021/12/31 01:49:18;;;;;;;;;;;12.60;99.90;;;;;;5016293;28;20396;-44
2021/12/31 01:51:45;;;;;;;;;;;12.60;99.90;;;;;;5014696;28;19929;-44
2021/12/31 01:54:12;;;;;;;;;;;12.60;99.90;;;;;;5032196;28;19926;-44
2021/12/31 01:56:38;;;;;;;;;;;12.60;99.90;;;;;;5032073;28;20362;-43
2021/12/31 01:59:05;;;;;;;;;;;12.60;99.90;;;;;;5024317;28;20393;-43
2021/12/31 02:01:32;;;;;;;;;;;12.60;99.90;;;;;;5031009;28;19951;-45
2021/12/31 02:03:59;;;;;;;;;;;12.60;99.90;;;;;;5031779;28;19929;-45
2021/12/31 02:06:28;;;;;;;;;;;12.60;99.90;;;;;;5014575;28;19987;-46
2021/12/31 02:08:55;;;;;;;;;;;12.60;99.90;;;;;;5032124;28;19957;-44
2021/12/31 02:11:21;;;;;;;;;;;12.60;99.90;;;;;;5031601;28;19925;-45
2021/12/31 02:13:48;;;;;;;;;;;12.70;99.90;;;;;;5034418;28;19971;-44
2021/12/31 02:16:15;;;;;;;;;;;12.70;99.90;;;;;;5032016;28;19932;-43
2021/12/31 02:18:44;;;;;;;;;;;12.70;99.90;;;;;;5032121;28;19957;-44
2021/12/31 02:21:13;;;;;;;;;;;12.70;99.90;;;;;;5027008;28;19928;-43
2021/12/31 02:23:44;;;;;;;;;;;12.70;99.90;;;;;;5035809;28;19925;-44
2021/12/31 02:26:11;;;;;;;;;;;12.70;99.90;;;;;;5034064;28;19991;-44
2021/12/31 02:28:38;;;;;;;;;;;12.70;99.90;;;;;;5035780;28;20389;-44
2021/12/31 02:31:04;;;;;;;;;;;12.70;99.90;;;;;;5014259;28;19987;-44
2021/12/31 02:33:31;;;;;;;;;;;12.70;99.90;;;;;;5018044;28;19932;-44
2021/12/31 02:35:58;;;;;;;;;;;12.70;99.90;;;;;;5029464;28;20516;-44
2021/12/31 02:38:26;;;;;;;;;;;12.70;99.90;;;;;;5035867;28;19971;-43
2021/12/31 02:40:53;;;;;;;;;;;12.70;99.90;;;;;;5018236;28;19972;-46
2021/12/31 02:43:20;;;;;;;;;;;12.70;99.90;;;;;;5033475;28;19936;-44
2021/12/31 02:45:47;;;;;;;;;;;12.70;99.90;;;;;;5038532;28;19929;-45
2021/12/31 02:48:14;;;;;;;;;;;12.70;99.90;;;;;;5017988;28;19933;-43
2021/12/31 02:50:42;;;;;;;;;;;12.70;99.90;;;;;;5017645;28;19925;-45
2021/12/31 02:53:10;;;;;;;;;;;12.70;99.90;;;;;;5035134;28;19971;-43
2021/12/31 02:55:38;;;;;;;;;;;12.80;99.90;;;;;;5038131;28;20312;-47
2021/12/31 02:58:05;;;;;;;;;;;12.80;99.90;;;;;;5028100;28;19960;-44
2021/12/31 03:00:32;;;;;;;;;;;12.80;99.90;;;;;;5034859;28;20431;-43
2021/12/31 03:02:59;;;;;;;;;;;12.70;99.90;;;;;;5032373;28;19933;-44
2021/12/31 03:05:26;;;;;;;;;;;12.80;99.90;;;;;;5016649;28;20012;-46
2021/12/31 03:07:53;;;;;;;;;;;12.90;99.90;;;;;;5017894;28;19925;-45
2021/12/31 03:10:19;;;;;;;;;;;12.80;99.90;;;;;;5036022;28;19972;-44
2021/12/31 03:12:47;;;;;;;;;;;12.80;99.90;;;;;;5050460;28;19976;-43
2021/12/31 03:15:14;;;;;;;;;;;12.90;99.90;;;;;;5034233;28;19963;-45
2021/12/31 03:17:41;;;;;;;;;;;12.90;99.90;;;;;;5034293;28;19929;-45
2021/12/31 03:20:11;;;;;;;;;;;12.90;99.90;;;;;;5017110;28;20270;-46
2021/12/31 03:22:38;;;;;;;;;;;12.80;99.90;;;;;;5027893;28;20012;-46
2021/12/31 03:25:05;;;;;;;;;;;12.90;99.90;;;;;;5017272;28;19925;-44
2021/12/31 03:27:32;;;;;;;;;;;12.90;99.90;;;;;;5016695;28;20360;-43
2021/12/31 03:30:00;;;;;;;;;;;12.90;99.90;;;;;;5016444;28;19925;-44
2021/12/31 03:32:27;;;;;;;;;;;12.90;99.90;;;;;;5016786;28;20036;-44
2021/12/31 03:34:53;;;;;;;;;;;12.90;99.90;;;;;;5040778;28;19925;-44
2021/12/31 03:37:20;;;;;;;;;;;13.00;99.90;;;;;;5033545;28;19960;-44
2021/12/31 03:39:47;;;;;;;;;;;13.00;99.90;;;;;;5034667;28;20016;-44
2021/12/31 03:42:16;;;;;;;;;;;13.00;99.90;;;;;;5034139;28;19925;-44
2021/12/31 03:44:43;;;;;;;;;;;13.00;99.90;;;;;;5035422;28;19932;-45
2021/12/31 03:47:11;;;;;;;;;;;13.00;99.90;;;;;;5034577;28;20010;-44
2021/12/31 03:49:38;;;;;;;;;;;13.00;99.90;;;;;;5016422;28;20023;-45
2021/12/31 03:52:04;;;;;;;;;;;13.00;99.90;;;;;;5037796;28;19925;-44
2021/12/31 03:54:31;;;;;;;;;;;13.00;99.90;;;;;;5016388;28;20421;-44
2021/12/31 03:56:58;;;;;;;;;;;12.90;99.90;;;;;;5034402;28;20305;-44
2021/12/31 03:59:25;;;;;;;;;;;12.90;99.90;;;;;;5016483;28;19987;-43
2021/12/31 04:01:51;;;;;;;;;;;12.90;99.90;;;;;;5034468;28;19925;-44
2021/12/31 04:04:19;;;;;;;;;;;12.90;99.90;;;;;;5016760;28;19925;-46
2021/12/31 04:06:46;;;;;;;;;;;12.90;99.90;;;;;;5025542;28;19931;-43
2021/12/31 04:09:13;;;;;;;;;;;12.90;99.90;;;;;;5033994;28;20440;-43
2021/12/31 04:11:40;;;;;;;;;;;12.90;99.90;;;;;;5016145;28;20051;-44
2021/12/31 04:14:06;;;;;;;;;;;12.90;99.90;;;;;;5033261;28;19925;-43
2021/12/31 04:16:33;;;;;;;;;;;12.90;99.90;;;;;;5016596;28;20012;-44
2021/12/31 04:19:01;;;;;;;;;;;12.90;99.90;;;;;;5033952;28;19925;-45
2021/12/31 04:21:30;;;;;;;;;;;12.90;99.90;;;;;;5015541;28;19937;-43
2021/12/31 04:24:07;;;;;;;;;;;12.90;99.90;;;;;;5038634;28;19925;-44
2021/12/31 04:26:33;;;;;;;;;;;12.80;99.90;;;;;;5016328;28;19925;-44
2021/12/31 04:29:00;;;;;;;;;;;12.90;99.90;;;;;;5033842;28;20270;-47
2021/12/31 04:31:27;;;;;;;;;;;12.90;99.90;;;;;;5033555;28;19925;-43
2021/12/31 04:33:54;;;;;;;;;;;12.90;99.90;;;;;;5015976;28;19928;-44
2021/12/31 04:36:21;;;;;;;;;;;12.90;99.90;;;;;;5016024;28;19948;-43
2021/12/31 04:38:49;;;;;;;;;;;12.90;99.90;;;;;;5033186;28;20090;-45
2021/12/31 04:41:16;;;;;;;;;;;13.00;99.90;;;;;;5036447;28;19985;-45
2021/12/31 04:43:43;;;;;;;;;;;13.00;99.90;;;;;;5014994;28;19926;-45
2021/12/31 04:46:10;;;;;;;;;;;13.00;99.90;;;;;;5037517;28;19933;-46
2021/12/31 04:48:37;;;;;;;;;;;12.90;99.90;;;;;;5048485;28;20409;-44
2021/12/31 04:51:04;;;;;;;;;;;12.90;99.90;;;;;;5031321;28;20394;-45
2021/12/31 04:53:31;;;;;;;;;;;13.00;99.90;;;;;;5015537;28;19967;-46
2021/12/31 04:55:59;;;;;;;;;;;13.00;99.90;;;;;;5015653;28;19979;-44
2021/12/31 04:58:26;;;;;;;;;;;13.00;99.90;;;;;;5033268;28;19971;-43
2021/12/31 05:00:53;;;;;;;;;;;13.00;99.90;;;;;;5014972;28;19941;-44
2021/12/31 05:03:20;;;;;;;;;;;13.00;99.90;;;;;;5033325;28;19964;-46
2021/12/31 05:05:46;;;;;;;;;;;13.00;99.90;;;;;;5047906;28;20438;-46
2021/12/31 05:08:13;;;;;;;;;;;13.00;99.90;;;;;;5015245;28;20028;-43
2021/12/31 05:10:40;;;;;;;;;;;13.00;99.90;;;;;;5032929;28;20345;-43
2021/12/31 05:13:10;;;;;;;;;;;13.00;99.90;;;;;;5021253;28;19926;-45
2021/12/31 05:15:44;;;;;;;;;;;13.00;99.90;;;;;;5055023;28;19944;-44
2021/12/31 05:18:11;;;;;;;;;;;13.00;99.90;;;;;;5012354;28;19972;-44
2021/12/31 05:20:37;;;;;;;;;;;13.00;99.90;;;;;;5015369;28;20381;-43
2021/12/31 05:23:04;;;;;;;;;;;13.00;99.90;;;;;;5026476;28;20385;-45
2021/12/31 05:25:31;;;;;;;;;;;13.00;99.90;;;;;;5032630;28;20312;-43
2021/12/31 05:27:58;;;;;;;;;;;13.00;99.90;;;;;;5032451;28;19927;-44
2021/12/31 05:30:26;;;;;;;;;;;13.00;99.90;;;;;;5032811;28;19925;-45
2021/12/31 05:32:53;;;;;;;;;;;13.00;99.90;;;;;;5014945;28;20286;-43
2021/12/31 05:35:19;;;;;;;;;;;12.90;99.90;;;;;;5032588;28;20278;-45
2021/12/31 05:37:46;;;;;;;;;;;13.00;99.90;;;;;;5032203;28;19925;-43
2021/12/31 05:40:13;;;;;;;;;;;13.00;99.90;;;;;;5027459;28;20024;-45
2021/12/31 05:42:40;;;;;;;;;;;13.00;99.90;;;;;;5035560;28;19971;-43
2021/12/31 05:45:09;;;;;;;;;;;13.00;99.90;;;;;;5039018;28;20385;-43
2021/12/31 05:47:38;;;;;;;;;;;13.00;99.90;;;;;;5025884;28;19925;-43
2021/12/31 05:50:07;;;;;;;;;;;13.00;99.90;;;;;;5032116;28;20385;-43
2021/12/31 05:52:34;;;;;;;;;;;13.00;99.90;;;;;;5015201;28;20364;-44
2021/12/31 05:55:01;;;;;;;;;;;13.00;99.90;;;;;;5018298;28;20404;-43
2021/12/31 05:57:27;;;;;;;;;;;13.00;99.90;;;;;;5036285;28;20289;-45
2021/12/31 05:59:54;;;;;;;;;;;13.00;99.90;;;;;;5018871;28;20041;-48
2021/12/31 06:02:21;;;;;;;;;;;13.00;99.90;;;;;;5036027;28;19961;-43
2021/12/31 06:04:49;;;;;;;;;;;13.00;99.90;;;;;;5036201;28;19925;-43
2021/12/31 06:07:16;;;;;;;;;;;13.00;99.90;;;;;;5016606;28;19929;-44
2021/12/31 06:09:43;;;;;;;;;;;12.90;99.90;;;;;;5036568;28;19935;-44
2021/12/31 06:12:09;;;;;;;;;;;12.80;99.90;;;;;;5043612;28;20392;-44
2021/12/31 06:14:36;;;;;;;;;;;12.80;99.90;;;;;;5040226;28;19924;-44
2021/12/31 06:17:06;;;;;;;;;;;12.80;99.90;;;;;;5052038;28;19929;-44
2021/12/31 06:19:34;;;;;;;;;;;12.80;99.90;;;;;;5017425;28;19932;-42
2021/12/31 06:22:02;;;;;;;;;;;12.70;99.90;;;;;;5035641;28;19955;-44
2021/12/31 06:24:28;;;;;;;;;;;12.80;99.90;;;;;;5034881;28;20012;-43
2021/12/31 06:26:55;;;;;;;;;;;12.80;99.90;;;;;;5018396;28;20296;-44
2021/12/31 06:29:22;;;;;;;;;;;12.80;99.90;;;;;;5018378;28;19995;-46
2021/12/31 06:31:49;;;;;;;;;;;12.80;99.90;;;;;;5037561;28;20034;-43
2021/12/31 06:34:16;;;;;;;;;;;12.80;99.90;;;;;;5035423;28;20381;-44
2021/12/31 06:36:42;;;;;;;;;;;12.80;99.90;;;;;;5035483;28;19929;-44
2021/12/31 06:39:10;;;;;;;;;;;12.80;99.90;;;;;;5018211;28;20366;-43
2021/12/31 06:41:37;;;;;;;;;;;12.80;99.90;;;;;;5018357;28;20012;-42
2021/12/31 06:44:04;;;;;;;;;;;12.70;99.90;;;;;;5035949;28;19926;-42
2021/12/31 06:46:31;;;;;;;;;;;12.70;99.90;;;;;;5018175;28;19979;-42
2021/12/31 06:48:58;;;;;;;;;;;12.70;99.90;;;;;;5035261;28;19965;-45
2021/12/31 06:51:25;;;;;;;;;;;12.60;99.90;;;;;;5017318;28;19925;-43
2021/12/31 06:53:51;;;;;;;;;;;12.60;99.90;;;;;;5052154;28;19925;-43
2021/12/31 06:56:19;;;;;;;;;;;12.60;99.90;;;;;;5017841;28;19925;-43
2021/12/31 06:58:46;;;;;;;;;;;12.60;99.90;;;;;;5035017;28;19939;-46
2021/12/31 07:01:13;;;;;;;;;;;12.50;99.90;;;;;;5034832;28;19933;-44
2021/12/31 07:03:40;;;;;;;;;;;12.50;99.90;;;;;;5050916;28;20326;-43
2021/12/31 07:06:06;;;;;;;;;;;12.50;99.90;;;;;;5034655;28;19925;-43
2021/12/31 07:08:33;;;;;;;;;;;12.50;99.90;;;;;;5017463;28;19975;-42
2021/12/31 07:11:00;;;;;;;;;;;12.50;99.90;;;;;;5033505;28;19931;-43
2021/12/31 07:13:28;;;;;;;;;;;12.50;99.90;;;;;;5018750;28;20378;-44
2021/12/31 07:15:55;;;;;;;;;;;12.50;99.90;;;;;;5036736;28;19925;-44
2021/12/31 07:18:22;;;;;;;;;;;12.50;99.90;;;;;;5034905;28;20456;-43
2021/12/31 07:20:49;;;;;;;;;;;12.50;99.90;;;;;;5017519;28;19925;-45
2021/12/31 07:23:18;;;;;;;;;;;12.40;99.90;;;;;;5035454;28;20351;-43
2021/12/31 07:25:45;;;;;;;;;;;12.40;99.90;;;;;;5017427;28;19952;-44
2021/12/31 07:28:12;;;;;;;;;;;12.30;99.90;;;;;;5016946;28;20006;-42
2021/12/31 07:30:40;;;;;;;;;;;12.30;99.90;;;;;;5034880;28;19968;-43
2021/12/31 07:33:06;;;;;;;;;;;12.30;99.90;;;;;;5034427;28;19931;-43
2021/12/31 07:35:33;;;;;;;;;;;12.30;99.90;;;;;;5034216;28;19925;-43
2021/12/31 07:38:00;;;;;;;;;;;12.30;99.90;;;;;;5037581;28;19929;-44
2021/12/31 07:40:37;;;;;;;;;;;12.30;99.90;;;;;;5014009;28;20019;-43
2021/12/31 07:43:04;;;;;;;;;;;12.30;99.90;;;;;;5010017;28;19933;-45
2021/12/31 07:45:31;;;;;;;;;;;12.30;99.90;;;;;;5036552;28;19925;-44
2021/12/31 07:47:59;;;;;;;;;;;12.30;99.90;;;;;;5033106;28;19925;-44
2021/12/31 07:50:26;;;;;;;;;;;12.40;99.90;;;;;;5017002;28;20001;-43
2021/12/31 07:52:52;;;;;;;;;;;12.30;99.90;;;;;;5033595;28;19933;-45
2021/12/31 07:55:19;;;;;;;;;;;12.30;99.90;;;;;;5033288;28;19933;-44
2021/12/31 07:57:46;;;;;;;;;;;12.30;99.90;;;;;;5010936;28;19972;-43
2021/12/31 08:00:13;;;;;;;;;;;12.30;99.90;;;;;;5033222;28;20304;-44
2021/12/31 08:02:40;;;;;;;;;;;12.40;99.90;;;;;;5033293;28;19995;-42
2021/12/31 08:05:09;;;;;;;;;;;12.40;99.90;;;;;;5016573;28;20019;-42
2021/12/31 08:07:35;;;;;;;;;;;12.30;99.90;;;;;;5047860;28;19930;-45
2021/12/31 08:10:03;;;;;;;;;;;12.30;99.90;;;;;;5029967;28;19929;-44
2021/12/31 08:12:30;;;;;;;;;;;12.30;99.90;;;;;;5042938;28;20484;-42
2021/12/31 08:14:56;;;;;;;;;;;12.30;99.90;;;;;;5038479;28;19931;-42
2021/12/31 08:17:23;;;;;;;;;;;12.30;99.90;;;;;;5032088;28;19924;-44
2021/12/31 08:19:50;;;;;;;;;;;12.40;99.90;;;;;;5026494;28;19925;-43
2021/12/31 08:22:18;;;;;;;;;;;12.40;99.90;;;;;;5033458;28;19939;-43
2021/12/31 08:24:45;;;;;;;;;;;12.40;99.90;;;;;;5014931;28;19935;-43
2021/12/31 08:27:11;;;;;;;;;;;12.50;99.90;;;;;;5031856;28;19976;-44
2021/12/31 08:29:38;;;;;;;;;;;12.50;99.90;;;;;;5033043;28;19925;-43
2021/12/31 08:32:06;;;;;;;;;;;12.50;99.90;;;;;;5027888;28;19925;-43
2021/12/31 08:34:32;;;;;;;;;;;12.60;99.90;;;;;;5028608;28;19995;-43
2021/12/31 08:36:59;;;;;;;;;;;12.60;99.90;;;;;;5031416;28;20368;-43
2021/12/31 08:39:27;;;;;;;;;;;12.60;99.90;;;;;;5033400;28;19933;-43
2021/12/31 08:41:54;;;;;;;;;;;12.60;99.90;;;;;;5033151;28;19944;-42
2021/12/31 08:44:21;;;;;;;;;;;12.60;99.90;;;;;;5031778;28;19975;-42
2021/12/31 08:46:47;;;;;;;;;;;12.70;99.90;;;;;;5017211;28;20019;-43
2021/12/31 08:49:14;;;;;;;;;;;12.60;99.90;;;;;;5033340;28;19929;-44
2021/12/31 08:51:41;;;;;;;;;;;12.70;99.90;;;;;;5018496;28;20292;-42
2021/12/31 08:54:08;;;;;;;;;;;12.70;99.90;;;;;;5015941;28;20499;-44
2021/12/31 08:56:36;;;;;;;;;;;12.70;99.90;;;;;;5014595;28;19976;-43
2021/12/31 08:59:03;;;;;;;;;;;12.70;99.90;;;;;;5016611;28;19925;-43
2021/12/31 09:01:30;;;;;;;;;;;12.70;99.90;;;;;;5013948;28;19932;-43
2021/12/31 09:03:56;;;;;;;;;;;12.70;99.90;;;;;;5031928;28;19925;-43
2021/12/31 09:06:23;;;;;;;;;;;12.70;99.90;;;;;;5014515;28;19925;-43
2021/12/31 09:08:50;;;;;;;;;;;12.60;99.90;;;;;;5014278;28;19925;-43
2021/12/31 09:11:17;;;;;;;;;;;12.70;99.90;;;;;;5016106;28;20288;-42
2021/12/31 09:13:46;;;;;;;;;;;12.70;99.90;;;;;;5034594;28;19931;-43
2021/12/31 09:16:13;;;;;;;;;;;12.70;99.90;;;;;;5014798;28;20364;-44
2021/12/31 09:18:40;;;;;;;;;;;12.70;99.90;;;;;;5030715;28;20385;-43
2021/12/31 09:21:07;;;;;;;;;;;12.70;99.90;;;;;;5031805;28;20304;-43
2021/12/31 09:23:34;;;;;;;;;;;12.60;99.90;;;;;;5032103;28;19925;-43
2021/12/31 09:26:01;;;;;;;;;;;12.70;99.90;;;;;;5015668;28;20666;-44
2021/12/31 09:28:27;;;;;;;;;;;12.70;99.90;;;;;;5030955;28;19925;-43
2021/12/31 09:31:00;;;;;;;;;;;12.70;99.90;;;;;;5047811;28;19976;-43
2021/12/31 09:33:28;;;;;;;;;;;12.60;99.90;;;;;;5033694;28;19925;-43
2021/12/31 09:35:54;;;;;;;;;;;12.70;99.90;;;;;;5014485;28;19925;-42
2021/12/31 09:38:21;;;;;;;;;;;12.70;99.90;;;;;;5014736;28;20019;-42
2021/12/31 09:40:48;;;;;;;;;;;12.70;99.90;;;;;;5014026;28;19948;-43
2021/12/31 09:43:15;;;;;;;;;;;12.70;99.90;;;;;;5014855;28;20277;-44
2021/12/31 09:45:42;;;;;;;;;;;12.70;99.90;;;;;;5034110;28;20301;-44
2021/12/31 09:48:11;;;;;;;;;;;12.80;99.90;;;;;;5014373;28;19948;-42
2021/12/31 09:50:39;;;;;;;;;;;12.80;99.90;;;;;;5032273;28;19925;-42
2021/12/31 09:53:06;;;;;;;;;;;12.80;99.90;;;;;;5047291;28;19933;-42
2021/12/31 09:55:39;;;;;;;;;;;12.80;99.90;;;;;;5031551;28;19972;-43
2021/12/31 09:58:06;;;;;;;;;;;12.80;99.90;;;;;;5031903;28;19925;-42
2021/12/31 10:00:33;;;;;;;;;;;12.80;99.90;;;;;;5031982;28;20007;-43
2021/12/31 10:03:09;;;;;;;;;;;12.70;99.90;;;;;;5031985;28;20359;-42
2021/12/31 10:05:41;;;;;;;;;;;12.70;99.90;;;;;;5032019;28;19960;-44
2021/12/31 10:08:13;;;;;;;;;;;12.70;99.90;;;;;;5012011;28;20021;-42
2021/12/31 10:10:40;;;;;;;;;;;12.70;99.90;;;;;;5031898;28;19925;-41
2021/12/31 10:13:07;;;;;;;;;;;12.70;99.90;;;;;;5014595;28;20342;-43
2021/12/31 10:15:37;;;;;;;;;;;12.70;99.90;;;;;;5015897;28;19933;-42
2021/12/31 10:18:08;;;;;;;;;;;12.70;99.90;;;;;;5009906;28;19971;-42
2021/12/31 10:20:39;;;;;;;;;;;12.70;99.90;;;;;;5015388;28;20020;-42
2021/12/31 10:23:12;;;;;;;;;;;12.70;99.90;;;;;;5034349;28;19935;-42
2021/12/31 10:25:39;;;;;;;;;;;12.70;99.90;;;;;;5016688;28;19969;-43
2021/12/31 10:28:08;;;;;;;;;;;12.70;99.90;;;;;;5014192;28;19947;-41
2021/12/31 10:30:35;;;;;;;;;;;12.70;99.90;;;;;;5019130;28;19928;-43
2021/12/31 10:33:02;;;;;;;;;;;12.70;99.90;;;;;;5053754;28;20377;-42
2021/12/31 10:35:37;;;;;;;;;;;12.70;99.90;;;;;;5038006;28;20373;-45
2021/12/31 10:38:06;;;;;;;;;;;12.70;99.90;;;;;;5017584;28;19925;-42
2021/12/31 10:40:33;;;;;;;;;;;12.70;99.90;;;;;;5054154;28;20408;-42
2021/12/31 10:43:11;;;;;;;;;;;12.70;99.90;;;;;;5017170;28;20469;-42
2021/12/31 10:45:38;;;;;;;;;;;12.70;99.90;;;;;;5034433;28;19980;-42
2021/12/31 10:48:05;;;;;;;;;;;12.70;99.90;;;;;;5032504;28;20023;-42
2021/12/31 10:50:32;;;;;;;;;;;12.80;99.90;;;;;;5019186;28;19926;-43
2021/12/31 10:53:02;;;;;;;;;;;12.70;99.90;;;;;;5025730;28;19964;-42
2021/12/31 10:55:30;;;;;;;;;;;12.70;99.90;;;;;;5000741;28;20006;-42
2021/12/31 10:57:58;;;;;;;;;;;12.70;99.90;;;;;;4996316;28;19929;-41
2021/12/31 11:00:25;;;;;;;;;;;12.70;99.90;;;;;;4993887;28;20391;-41
2021/12/31 11:02:52;;;;;;;;;;;12.70;99.90;;;;;;4997767;28;20019;-42
2021/12/31 11:05:20;;;;;;;;;;;12.70;99.90;;;;;;4994766;28;19932;-42
2021/12/31 11:07:47;;;;;;;;;;;12.60;99.90;;;;;;5032796;28;20028;-41
2021/12/31 11:10:13;;;;;;;;;;;12.60;99.90;;;;;;4994544;28;20378;-41
2021/12/31 11:12:46;;;;;;;;;;;12.60;99.90;;;;;;4995738;28;20033;-43
2021/12/31 11:15:13;;;;;;;;;;;12.60;99.90;;;;;;4997027;28;19925;-42
2021/12/31 11:17:40;;;;;;;;;;;12.50;99.90;;;;;;4995661;28;19957;-44
2021/12/31 11:20:07;;;;;;;;;;;12.50;99.90;;;;;;4999287;28;20024;-42
2021/12/31 11:22:34;;;;;;;;;;;12.50;99.90;;;;;;5001731;28;20015;-43
2021/12/31 11:25:20;;;;;;;;;;;12.50;99.90;;;;;;5029946;28;20341;-44
2021/12/31 11:27:48;;;;;;;;;;;12.40;99.90;;;;;;4988482;28;19968;-43
2021/12/31 11:30:28;;;;;;;;;;;12.40;99.90;;;;;;4993180;28;19925;-43
2021/12/31 11:32:56;;;;;;;;;;;12.40;99.90;;;;;;4992891;28;19930;-43
2021/12/31 11:35:35;;;;;;;;;;;12.40;99.90;;;;;;4992656;28;20022;-44
2021/12/31 11:38:03;;;;;;;;;;;12.40;99.90;;;;;;4990389;28;19972;-45
2021/12/31 11:40:30;;;;;;;;;;;12.40;99.90;;;;;;4994016;28;19926;-43
2021/12/31 11:43:24;;;;;;;;;;;12.40;99.90;;;;;;5001986;28;20404;-44
2021/12/31 11:46:09;;;;;;;;;;;12.40;99.90;;;;;;4954099;28;19930;-42
2021/12/31 11:48:53;;;;;;;;;;;12.30;99.90;;;;;;4993164;28;20016;-45
2021/12/31 11:51:21;;;;;;;;;;;12.30;99.90;;;;;;5021102;28;20594;-44
2021/12/31 11:54:08;;;;;;;;;;;12.30;99.90;;;;;;4995194;28;19926;-43
2021/12/31 11:56:53;;;;;;;;;;;12.30;99.90;;;;;;5049578;28;20384;-45
2021/12/31 11:59:27;;;;;;;;;;;12.30;99.90;;;;;;5033593;28;19931;-42
2021/12/31 12:01:55;;;;;;;;;;;12.30;99.90;;;;;;5016636;28;20036;-44
2021/12/31 12:04:24;;;;;;;;;;;12.30;99.90;;;;;;5015118;28;19935;-43
2021/12/31 12:06:54;;;;;;;;;;;12.30;99.90;;;;;;5016756;28;19925;-43
2021/12/31 12:09:21;;;;;;;;;;;12.30;99.90;;;;;;5033959;28;19925;-45
2021/12/31 12:12:00;;;;;;;;;;;12.30;99.90;;;;;;5016558;28;19929;-43
2021/12/31 12:14:30;;;;;;;;;;;12.30;99.90;;;;;;5026078;28;19983;-43
2021/12/31 12:16:57;;;;;;;;;;;12.30;99.90;;;;;;5033930;28;20404;-42
2021/12/31 12:19:25;;;;;;;;;;;12.30;99.90;;;;;;5016615;28;20033;-41
2021/12/31 12:21:52;;;;;;;;;;;12.30;99.90;;;;;;5038742;28;20008;-40
2021/12/31 12:24:23;;;;;;;;;;;12.20;99.90;;;;;;5033620;28;20369;-40
2021/12/31 12:26:50;;;;;;;;;;;12.20;99.90;;;;;;5033727;28;19971;-39
2021/12/31 12:29:24;;;;;;;;;;;12.20;99.90;;;;;;5031427;28;19925;-42
2021/12/31 12:32:06;;;;;;;;;;;12.20;99.90;;;;;;5034038;28;19925;-40
2021/12/31 12:34:34;;;;;;;;;;;12.10;99.90;;;;;;5018304;28;20003;-44
2021/12/31 12:37:00;;;;;;;;;;;12.10;99.90;;;;;;5033652;28;20348;-41
2021/12/31 12:39:27;;;;;;;;;;;12.10;99.90;;;;;;5033435;28;20016;-41
2021/12/31 12:41:54;;;;;;;;;;;12.10;99.90;;;;;;5049270;28;19975;-40
2021/12/31 12:44:21;;;;;;;;;;;12.00;99.90;;;;;;5035374;28;19924;-41
2021/12/31 12:46:54;;;;;;;;;;;12.00;99.90;;;;;;5016636;28;20450;-42
2021/12/31 12:49:21;;;;;;;;;;;12.00;99.90;;;;;;5016007;28;19925;-42
2021/12/31 12:51:49;;;;;;;;;;;12.00;99.90;;;;;;5039566;28;19975;-43
2021/12/31 12:54:19;;;;;;;;;;;12.00;99.90;;;;;;5015827;28;20324;-43
2021/12/31 12:56:46;;;;;;;;;;;12.00;99.90;;;;;;5032981;28;19932;-39
2021/12/31 12:59:17;;;;;;;;;;;11.90;99.90;;;;;;5017197;28;19925;-39
2021/12/31 13:01:45;;;;;;;;;;;11.90;99.90;;;;;;5015846;28;20277;-41
2021/12/31 13:04:12;;;;;;;;;;;11.90;99.90;;;;;;5048606;28;19929;-41
2021/12/31 13:06:39;;;;;;;;;;;11.90;99.90;;;;;;5033067;28;19971;-41
2021/12/31 13:09:09;;;;;;;;;;;12.00;99.90;;;;;;5032906;28;19929;-41
2021/12/31 13:11:36;;;;;;;;;;;11.90;99.90;;;;;;5032876;28;19979;-42
2021/12/31 13:14:03;;;;;;;;;;;11.90;99.90;;;;;;5015783;28;19925;-39
2021/12/31 13:16:30;;;;;;;;;;;11.90;99.90;;;;;;5033022;28;19925;-39
2021/12/31 13:18:57;;;;;;;;;;;11.90;99.90;;;;;;5032928;28;19925;-39
2021/12/31 13:21:24;;;;;;;;;;;11.90;99.90;;;;;;5014703;28;19925;-40
2021/12/31 13:23:51;;;;;;;;;;;11.90;99.90;;;;;;5048289;28;19925;-41
2021/12/31 13:26:23;;;;;;;;;;;11.90;99.90;;;;;;5022630;28;19933;-41
2021/12/31 13:28:50;;;;;;;;;;;11.90;99.90;;;;;;5015364;28;19926;-41
2021/12/31 13:31:17;;;;;;;;;;;11.90;99.90;;;;;;5015527;28;19976;-40
2021/12/31 13:33:44;;;;;;;;;;;11.90;99.90;;;;;;5032476;28;20013;-41
2021/12/31 13:36:12;;;;;;;;;;;11.90;99.90;;;;;;5015549;28;19932;-41
2021/12/31 13:39:13;;;;;;;;;;;11.90;99.90;;;;;;5015075;28;19935;-41
2021/12/31 13:41:57;;;;;;;;;;;11.90;99.90;;;;;;4951932;28;20016;-41
2021/12/31 13:44:27;;;;;;;;;;;11.90;99.90;;;;;;4951450;28;20436;-40
2021/12/31 13:47:04;;;;;;;;;;;11.90;99.90;;;;;;5011110;28;20352;-40
2021/12/31 13:49:32;;;;;;;;;;;11.90;99.90;;;;;;5048070;28;20351;-42
2021/12/31 13:51:58;;;;;;;;;;;11.90;99.90;;;;;;5016294;28;19929;-40
2021/12/31 13:54:36;;;;;;;;;;;11.90;99.90;;;;;;5032350;28;20288;-40
2021/12/31 13:57:03;;;;;;;;;;;11.80;99.90;;;;;;5051993;28;19925;-41
2021/12/31 13:59:36;;;;;;;;;;;11.80;99.90;;;;;;5022097;28;20435;-42
2021/12/31 14:02:14;;;;;;;;;;;11.80;99.90;;;;;;5034485;28;20390;-41
2021/12/31 14:05:00;;;;;;;;;;;11.90;99.90;;;;;;5047623;28;19926;-40
2021/12/31 14:07:31;;;;;;;;;;;11.80;99.90;;;;;;5024748;28;20285;-40
2021/12/31 14:09:58;;;;;;;;;;;11.80;99.90;;;;;;5032229;28;20030;-40
2021/12/31 14:12:25;;;;;;;;;;;11.80;99.90;;;;;;5015185;28;19976;-40
2021/12/31 14:14:53;;;;;;;;;;;11.80;99.90;;;;;;5049968;28;20012;-41
2021/12/31 14:17:20;;;;;;;;;;;11.80;99.90;;;;;;5051693;28;20408;-42
2021/12/31 14:19:47;;;;;;;;;;;11.80;99.90;;;;;;5018944;28;19955;-41
2021/12/31 14:22:14;;;;;;;;;;;11.80;99.90;;;;;;5035126;28;19931;-42
2021/12/31 14:24:41;;;;;;;;;;;11.80;99.90;;;;;;5018521;28;19983;-40